Time;durP1;ratioP1;P1;durP2;ratioP2;P2;SDS_P1;SDS_P2;PMS_P1;PMS_P2;Temp;Humidity;BMP_temperature;BMP_pressure;BME280_temperature;BME280_humidity;BME280_pressure;Samples;Min_cycle;Max_cycle;Signal;HPM_P1;HPM_P2
2021/07/06 00:00:35;;;;;;;10.27;4.80;;;;;;;;;;6186858;23;20021;-60
2021/07/06 00:03:02;;;;;;;6.70;3.33;;;;;;;;;;6186505;23;20016;-61
2021/07/06 00:05:28;;;;;;;11.00;3.70;;;;;;;;;;6186727;23;20471;-61
2021/07/06 00:07:55;;;;;;;5.35;3.28;;;;;;;;;;6186488;23;20001;-61
2021/07/06 00:10:23;;;;;;;8.43;4.00;;;;;;;;;;6186643;23;20005;-61
2021/07/06 00:12:50;;;;;;;6.30;3.70;;;;;;;;;;6186471;23;20005;-61
2021/07/06 00:15:19;;;;;;;13.43;4.40;;;;;;;;;;6186467;23;20076;-61
2021/07/06 00:17:46;;;;;;;9.32;4.55;;;;;;;;;;6186812;23;20005;-61
2021/07/06 00:20:14;;;;;;;5.70;3.75;;;;;;;;;;6186164;23;20023;-61
2021/07/06 00:22:42;;;;;;;5.95;4.05;;;;;;;;;;6186465;23;20067;-61
2021/07/06 00:25:10;;;;;;;8.55;3.50;;;;;;;;;;6186488;23;20008;-61
2021/07/06 00:27:36;;;;;;;4.82;3.40;;;;;;;;;;6186509;23;20005;-61
2021/07/06 00:30:05;;;;;;;11.07;3.55;;;;;;;;;;6186320;23;20076;-61
2021/07/06 00:32:31;;;;;;;25.05;4.53;;;;;;;;;;6186478;23;20007;-61
2021/07/06 00:34:58;;;;;;;12.27;5.35;;;;;;;;;;6186304;23;20029;-61
2021/07/06 00:37:26;;;;;;;8.63;3.83;;;;;;;;;;6186447;23;20008;-61
2021/07/06 00:39:53;;;;;;;8.18;4.63;;;;;;;;;;6160551;23;20013;-61
2021/07/06 00:42:20;;;;;;;7.00;4.50;;;;;;;;;;6186194;23;20088;-61
2021/07/06 00:44:47;;;;;;;14.35;4.10;;;;;;;;;;6186330;23;20005;-61
2021/07/06 00:47:14;;;;;;;4.72;3.45;;;;;;;;;;6186174;23;20397;-61
2021/07/06 00:49:41;;;;;;;8.80;4.10;;;;;;;;;;6186184;23;20028;-61
2021/07/06 00:52:08;;;;;;;9.55;4.20;;;;;;;;;;6159934;23;20371;-61
2021/07/06 00:54:35;;;;;;;6.10;4.30;;;;;;;;;;6186193;23;20001;-60
2021/07/06 00:57:02;;;;;;;6.33;3.63;;;;;;;;;;6186091;23;20332;-60
2021/07/06 00:59:32;;;;;;;8.98;4.00;;;;;;;;;;6186825;23;20363;-61
2021/07/06 01:01:58;;;;;;;7.90;4.40;;;;;;;;;;6159903;23;20012;-61
2021/07/06 01:04:25;;;;;;;6.70;4.43;;;;;;;;;;6186444;23;20076;-60
2021/07/06 01:06:52;;;;;;;9.27;4.67;;;;;;;;;;6185560;23;20016;-60
2021/07/06 01:09:19;;;;;;;10.33;4.50;;;;;;;;;;6186199;23;20048;-61
2021/07/06 01:11:46;;;;;;;8.27;4.30;;;;;;;;;;6185983;23;20005;-61
2021/07/06 01:14:13;;;;;;;5.77;4.13;;;;;;;;;;6185836;23;20008;-61
2021/07/06 01:16:44;;;;;;;5.60;4.10;;;;;;;;;;6186659;23;20072;-61
2021/07/06 01:19:14;;;;;;;8.47;5.03;;;;;;;;;;6161076;23;20028;-60
2021/07/06 01:21:41;;;;;;;7.30;5.17;;;;;;;;;;6185904;23;20043;-60
2021/07/06 01:24:08;;;;;;;13.20;6.47;;;;;;;;;;6185938;23;20032;-60
2021/07/06 01:26:35;;;;;;;10.63;6.70;;;;;;;;;;6185966;23;20075;-60
2021/07/06 01:29:01;;;;;;;7.73;6.23;;;;;;;;;;6186173;23;20020;-60
2021/07/06 01:31:28;;;;;;;11.67;7.37;;;;;;;;;;6186014;23;20067;-60
2021/07/06 01:33:58;;;;;;;12.93;7.97;;;;;;;;;;6185896;23;20008;-60
2021/07/06 01:36:24;;;;;;;15.13;8.30;;;;;;;;;;6185921;23;20012;-60
2021/07/06 01:38:51;;;;;;;13.37;9.33;;;;;;;;;;6185715;23;20015;-60
2021/07/06 01:41:18;;;;;;;13.40;9.43;;;;;;;;;;6135026;23;20072;-60
2021/07/06 01:43:46;;;;;;;12.93;8.80;;;;;;;;;;6185831;23;20001;-60
2021/07/06 01:46:13;;;;;;;14.07;9.27;;;;;;;;;;6185659;23;20009;-60
2021/07/06 01:48:39;;;;;;;14.50;11.63;;;;;;;;;;6185567;23;20336;-60
2021/07/06 01:51:06;;;;;;;17.80;10.87;;;;;;;;;;6185819;23;20001;-60
2021/07/06 01:53:33;;;;;;;13.70;8.83;;;;;;;;;;6185699;23;19997;-60
2021/07/06 01:56:00;;;;;;;13.00;8.73;;;;;;;;;;6185558;23;20084;-60
2021/07/06 01:58:27;;;;;;;15.40;9.27;;;;;;;;;;6185645;23;20043;-60
2021/07/06 02:00:56;;;;;;;11.97;8.73;;;;;;;;;;6185350;23;20009;-60
2021/07/06 02:03:23;;;;;;;12.57;8.20;;;;;;;;;;6185614;23;20001;-60
2021/07/06 02:05:54;;;;;;;10.43;8.03;;;;;;;;;;6185498;23;20353;-60
2021/07/06 02:08:21;;;;;;;13.83;8.37;;;;;;;;;;6185625;23;20360;-60
2021/07/06 02:10:50;;;;;;;10.37;7.70;;;;;;;;;;6185933;23;20001;-60
2021/07/06 02:13:18;;;;;;;9.67;6.93;;;;;;;;;;6185420;23;19997;-60
2021/07/06 02:15:45;;;;;;;8.40;6.50;;;;;;;;;;6185421;23;20013;-60
2021/07/06 02:18:35;;;;;;;9.00;7.13;;;;;;;;;;6185921;23;20044;-60
2021/07/06 02:21:02;;;;;;;11.33;7.73;;;;;;;;;;6185242;23;20017;-60
2021/07/06 02:23:29;;;;;;;11.27;7.43;;;;;;;;;;6185748;23;19997;-60
2021/07/06 02:25:57;;;;;;;10.17;6.67;;;;;;;;;;6185310;23;20009;-60
2021/07/06 02:28:24;;;;;;;12.77;8.83;;;;;;;;;;6185227;23;20029;-59
2021/07/06 02:30:51;;;;;;;12.03;8.67;;;;;;;;;;6185300;23;20013;-60
2021/07/06 02:33:18;;;;;;;15.37;9.23;;;;;;;;;;6185306;23;20420;-61
2021/07/06 02:35:45;;;;;;;14.67;8.20;;;;;;;;;;6185137;23;20008;-60
2021/07/06 02:38:12;;;;;;;9.13;6.70;;;;;;;;;;6185382;23;20079;-60
2021/07/06 02:40:39;;;;;;;9.50;7.50;;;;;;;;;;6184925;23;20036;-60
2021/07/06 02:43:06;;;;;;;7.93;6.10;;;;;;;;;;6185156;23;20013;-60
2021/07/06 02:45:33;;;;;;;9.63;6.20;;;;;;;;;;6185216;23;20001;-60
2021/07/06 02:48:00;;;;;;;8.70;6.77;;;;;;;;;;6185106;23;20388;-60
2021/07/06 02:50:28;;;;;;;11.17;7.40;;;;;;;;;;6185322;23;20060;-60
2021/07/06 02:52:55;;;;;;;11.90;6.90;;;;;;;;;;6184964;23;20367;-60
2021/07/06 02:55:22;;;;;;;11.00;7.03;;;;;;;;;;6185286;23;20504;-59
2021/07/06 02:57:52;;;;;;;10.67;7.40;;;;;;;;;;6185172;23;20005;-60
2021/07/06 03:00:24;;;;;;;10.60;7.67;;;;;;;;;;6185214;23;20009;-60
2021/07/06 03:02:52;;;;;;;11.23;6.53;;;;;;;;;;6185171;23;19997;-60
2021/07/06 03:05:19;;;;;;;10.80;6.60;;;;;;;;;;6185124;23;20340;-60
2021/07/06 03:07:47;;;;;;;11.00;6.87;;;;;;;;;;6185202;23;20005;-60
2021/07/06 03:10:15;;;;;;;11.10;6.00;;;;;;;;;;6185023;23;20005;-60
2021/07/06 03:12:43;;;;;;;29.87;7.50;;;;;;;;;;6185116;23;20001;-60
2021/07/06 03:15:11;;;;;;;13.03;6.93;;;;;;;;;;6185348;23;20001;-60
2021/07/06 03:17:38;;;;;;;12.17;7.40;;;;;;;;;;6184613;23;20535;-60
2021/07/06 03:20:07;;;;;;;13.80;6.93;;;;;;;;;;6185512;23;20013;-60
2021/07/06 03:22:33;;;;;;;10.47;6.83;;;;;;;;;;6184615;23;20152;-60
2021/07/06 03:25:00;;;;;;;8.27;5.90;;;;;;;;;;6158457;23;20424;-60
2021/07/06 03:27:27;;;;;;;18.77;7.23;;;;;;;;;;6184964;23;20001;-60
2021/07/06 03:29:54;;;;;;;11.80;6.83;;;;;;;;;;6184920;23;20009;-60
2021/07/06 03:32:21;;;;;;;16.47;8.37;;;;;;;;;;6184947;23;19998;-60
2021/07/06 03:34:48;;;;;;;13.33;6.63;;;;;;;;;;6184914;23;20033;-60
2021/07/06 03:37:15;;;;;;;10.37;6.67;;;;;;;;;;6185150;23;19997;-60
2021/07/06 03:39:42;;;;;;;9.47;6.90;;;;;;;;;;6185014;23;20005;-60
2021/07/06 03:42:10;;;;;;;17.30;8.07;;;;;;;;;;6185070;23;20072;-60
2021/07/06 03:44:37;;;;;;;10.70;6.30;;;;;;;;;;6158575;23;20432;-60
2021/07/06 03:47:05;;;;;;;11.23;6.60;;;;;;;;;;6185035;23;20059;-60
2021/07/06 03:49:33;;;;;;;9.77;6.17;;;;;;;;;;6185043;23;20076;-60
2021/07/06 03:52:00;;;;;;;11.07;8.00;;;;;;;;;;6186519;23;20053;-60
2021/07/06 03:54:27;;;;;;;11.53;7.40;;;;;;;;;;6186669;23;20338;-60
2021/07/06 03:56:54;;;;;;;11.17;6.63;;;;;;;;;;6186838;23;20001;-60
2021/07/06 03:59:21;;;;;;;9.33;6.30;;;;;;;;;;6186811;23;20079;-60
2021/07/06 04:01:48;;;;;;;10.30;6.97;;;;;;;;;;6160716;23;20013;-60
2021/07/06 04:04:15;;;;;;;10.73;7.83;;;;;;;;;;6186607;23;20001;-59
2021/07/06 04:06:42;;;;;;;14.23;8.00;;;;;;;;;;6186607;23;20005;-60
2021/07/06 04:09:09;;;;;;;16.23;7.47;;;;;;;;;;6186673;23;20052;-60
2021/07/06 04:11:35;;;;;;;14.30;7.67;;;;;;;;;;6186550;23;20355;-59
2021/07/06 04:14:04;;;;;;;11.13;7.90;;;;;;;;;;6186550;23;20375;-59
2021/07/06 04:16:30;;;;;;;20.47;7.60;;;;;;;;;;6186676;23;20001;-60
2021/07/06 04:18:57;;;;;;;14.10;7.27;;;;;;;;;;6187216;23;20017;-58
2021/07/06 04:21:24;;;;;;;11.83;7.13;;;;;;;;;;6186551;23;20016;-61
2021/07/06 04:23:51;;;;;;;15.07;9.00;;;;;;;;;;6186500;23;19997;-60
2021/07/06 04:26:19;;;;;;;14.93;8.90;;;;;;;;;;6186540;23;20001;-60
2021/07/06 04:28:46;;;;;;;15.70;9.37;;;;;;;;;;6186606;23;20001;-61
2021/07/06 04:31:13;;;;;;;9.07;7.43;;;;;;;;;;6186601;23;20325;-61
2021/07/06 04:33:39;;;;;;;11.67;7.87;;;;;;;;;;6186331;23;20496;-60
2021/07/06 04:36:06;;;;;;;9.70;6.73;;;;;;;;;;6186442;23;20080;-60
2021/07/06 04:38:33;;;;;;;15.90;8.73;;;;;;;;;;6186601;23;20001;-60
2021/07/06 04:41:00;;;;;;;12.87;8.17;;;;;;;;;;6186471;23;20009;-60
2021/07/06 04:43:27;;;;;;;26.03;8.53;;;;;;;;;;6186356;23;20036;-59
2021/07/06 04:45:53;;;;;;;12.57;8.47;;;;;;;;;;6186296;23;20017;-60
2021/07/06 04:48:20;;;;;;;14.03;9.57;;;;;;;;;;6186394;23;20009;-60
2021/07/06 04:50:47;;;;;;;11.57;8.50;;;;;;;;;;6186396;23;20036;-60
2021/07/06 04:53:15;;;;;;;12.57;8.47;;;;;;;;;;6186338;23;20007;-60
2021/07/06 04:55:42;;;;;;;12.47;8.93;;;;;;;;;;6186324;23;20005;-60
2021/07/06 04:58:08;;;;;;;13.50;8.60;;;;;;;;;;6186261;23;20004;-60
2021/07/06 05:00:35;;;;;;;13.63;8.20;;;;;;;;;;6186283;23;20008;-60
2021/07/06 05:03:02;;;;;;;11.80;8.13;;;;;;;;;;6185850;23;20072;-60
2021/07/06 05:05:29;;;;;;;12.07;9.10;;;;;;;;;;6186353;23;20095;-60
2021/07/06 05:07:56;;;;;;;11.33;8.23;;;;;;;;;;6186088;23;20001;-60
2021/07/06 05:10:23;;;;;;;14.40;8.97;;;;;;;;;;6186059;23;20067;-60
2021/07/06 05:12:50;;;;;;;15.50;8.80;;;;;;;;;;6186125;23;20060;-60
2021/07/06 05:15:17;;;;;;;17.83;9.27;;;;;;;;;;6186079;23;20021;-60
2021/07/06 05:17:44;;;;;;;13.13;8.83;;;;;;;;;;6185917;23;20001;-60
2021/07/06 05:20:11;;;;;;;13.30;9.63;;;;;;;;;;6186818;22;20013;-60
2021/07/06 05:22:37;;;;;;;14.60;10.03;;;;;;;;;;6185855;23;20347;-60
2021/07/06 05:25:05;;;;;;;17.03;10.97;;;;;;;;;;6185867;23;20001;-60
2021/07/06 05:27:32;;;;;;;16.33;11.03;;;;;;;;;;6185965;23;20387;-60
2021/07/06 05:29:58;;;;;;;14.03;9.33;;;;;;;;;;6185949;23;20321;-60
2021/07/06 05:32:25;;;;;;;19.77;11.93;;;;;;;;;;6185916;23;20385;-60
2021/07/06 05:34:52;;;;;;;15.73;10.00;;;;;;;;;;6185996;23;20017;-60
2021/07/06 05:37:19;;;;;;;13.30;10.07;;;;;;;;;;6185800;23;20012;-60
2021/07/06 05:39:46;;;;;;;13.70;9.57;;;;;;;;;;6185671;23;20431;-60
2021/07/06 05:42:12;;;;;;;16.67;9.90;;;;;;;;;;6185723;23;20490;-60
2021/07/06 05:44:39;;;;;;;12.83;9.43;;;;;;;;;;6185499;23;20063;-60
2021/07/06 05:47:07;;;;;;;17.20;9.40;;;;;;;;;;6185798;23;20313;-60
2021/07/06 05:49:34;;;;;;;11.37;9.13;;;;;;;;;;6185609;23;20035;-60
2021/07/06 05:52:01;;;;;;;16.03;10.07;;;;;;;;;;6185570;23;20113;-60
2021/07/06 05:54:28;;;;;;;18.23;10.20;;;;;;;;;;6185503;23;20005;-60
2021/07/06 05:56:55;;;;;;;13.93;10.00;;;;;;;;;;6159572;23;20413;-60
2021/07/06 05:59:22;;;;;;;11.93;9.20;;;;;;;;;;6185536;23;20023;-60
2021/07/06 06:01:49;;;;;;;12.57;9.77;;;;;;;;;;6185571;23;20048;-60
2021/07/06 06:04:16;;;;;;;16.33;10.03;;;;;;;;;;6185440;23;20428;-59
2021/07/06 06:06:43;;;;;;;15.80;11.00;;;;;;;;;;6185604;23;20068;-60
2021/07/06 06:09:10;;;;;;;14.93;9.83;;;;;;;;;;6185401;23;20029;-60
2021/07/06 06:11:37;;;;;;;12.63;9.17;;;;;;;;;;6185729;23;20001;-60
2021/07/06 06:14:04;;;;;;;14.63;9.73;;;;;;;;;;6184946;23;20005;-59
2021/07/06 06:16:31;;;;;;;13.73;9.33;;;;;;;;;;6185564;23;20007;-59
2021/07/06 06:18:58;;;;;;;17.20;9.80;;;;;;;;;;6186322;23;20021;-59
2021/07/06 06:21:25;;;;;;;12.87;10.13;;;;;;;;;;6185385;23;20009;-59
2021/07/06 06:23:52;;;;;;;15.63;10.40;;;;;;;;;;6185331;23;20005;-59
2021/07/06 06:26:19;;;;;;;16.87;10.67;;;;;;;;;;6185304;23;20310;-59
2021/07/06 06:28:46;;;;;;;13.83;10.13;;;;;;;;;;6185562;23;20021;-59
2021/07/06 06:31:13;;;;;;;16.70;9.67;;;;;;;;;;6185350;23;20032;-59
2021/07/06 06:33:39;;;;;;;12.83;9.47;;;;;;;;;;6185320;23;20007;-59
2021/07/06 06:36:06;;;;;;;14.77;9.80;;;;;;;;;;6185253;23;20043;-59
2021/07/06 06:38:33;;;;;;;13.87;9.50;;;;;;;;;;6185289;23;20003;-59
2021/07/06 06:41:00;;;;;;;15.20;8.80;;;;;;;;;;6185303;23;20305;-59
2021/07/06 06:43:27;;;;;;;12.83;8.87;;;;;;;;;;6185349;23;20148;-59
2021/07/06 06:45:53;;;;;;;13.27;9.53;;;;;;;;;;6185293;23;20091;-59
2021/07/06 06:48:20;;;;;;;14.30;8.77;;;;;;;;;;6185286;23;20012;-59
2021/07/06 06:50:47;;;;;;;13.37;9.53;;;;;;;;;;6185311;23;20088;-59
2021/07/06 06:53:14;;;;;;;12.13;9.70;;;;;;;;;;6185267;23;19998;-59
2021/07/06 06:55:40;;;;;;;12.80;10.13;;;;;;;;;;6185222;23;20394;-59
2021/07/06 06:58:07;;;;;;;13.07;9.07;;;;;;;;;;6185340;23;20020;-59
2021/07/06 07:00:35;;;;;;;11.63;8.47;;;;;;;;;;6185275;23;20005;-59
2021/07/06 07:03:02;;;;;;;14.77;10.60;;;;;;;;;;6185084;23;20016;-59
2021/07/06 07:05:28;;;;;;;14.43;10.47;;;;;;;;;;6185098;23;20024;-59
2021/07/06 07:07:58;;;;;;;12.80;9.23;;;;;;;;;;6185080;23;20020;-59
2021/07/06 07:10:26;;;;;;;15.47;10.33;;;;;;;;;;6185223;23;20077;-59
2021/07/06 07:12:56;;;;;;;15.83;9.70;;;;;;;;;;6185057;23;20001;-59
2021/07/06 07:15:23;;;;;;;15.40;9.73;;;;;;;;;;6185062;23;20001;-59
2021/07/06 07:17:50;;;;;;;13.00;9.30;;;;;;;;;;6185592;23;20012;-59
2021/07/06 07:20:17;;;;;;;11.40;9.23;;;;;;;;;;6185825;23;20436;-59
2021/07/06 07:22:44;;;;;;;17.67;11.17;;;;;;;;;;6185100;23;20001;-59
2021/07/06 07:25:13;;;;;;;17.43;10.93;;;;;;;;;;6185121;23;20184;-59
2021/07/06 07:27:39;;;;;;;14.53;10.40;;;;;;;;;;6187223;23;20021;-59
2021/07/06 07:30:07;;;;;;;13.00;10.00;;;;;;;;;;6187524;23;20068;-59
2021/07/06 07:32:34;;;;;;;13.27;10.50;;;;;;;;;;6187004;23;20005;-59
2021/07/06 07:35:00;;;;;;;19.57;10.30;;;;;;;;;;6187852;23;20320;-59
2021/07/06 07:37:27;;;;;;;13.00;10.17;;;;;;;;;;6186995;23;20013;-59
2021/07/06 07:39:54;;;;;;;14.57;9.43;;;;;;;;;;6186737;23;20084;-59
2021/07/06 07:42:21;;;;;;;13.13;9.77;;;;;;;;;;6186835;23;20012;-59
2021/07/06 07:44:48;;;;;;;16.73;10.40;;;;;;;;;;6186900;23;20513;-59
2021/07/06 07:47:15;;;;;;;18.40;10.93;;;;;;;;;;6186799;23;20391;-59
2021/07/06 07:49:41;;;;;;;17.50;11.57;;;;;;;;;;6186696;23;20436;-59
2021/07/06 07:52:09;;;;;;;16.07;11.07;;;;;;;;;;6186875;23;20001;-59
2021/07/06 07:54:36;;;;;;;15.10;10.63;;;;;;;;;;6186771;23;20016;-59
2021/07/06 07:57:06;;;;;;;15.37;10.87;;;;;;;;;;6186699;23;20005;-59
2021/07/06 07:59:33;;;;;;;16.53;10.37;;;;;;;;;;6187009;23;20009;-59
2021/07/06 08:02:00;;;;;;;14.00;11.17;;;;;;;;;;6186750;23;20032;-59
2021/07/06 08:04:27;;;;;;;16.57;11.77;;;;;;;;;;6186603;23;20420;-59
2021/07/06 08:06:53;;;;;;;15.67;10.83;;;;;;;;;;6186518;23;20092;-59
2021/07/06 08:09:20;;;;;;;17.20;11.57;;;;;;;;;;6186718;23;20005;-59
2021/07/06 08:11:47;;;;;;;15.80;11.10;;;;;;;;;;6186525;23;20451;-59
2021/07/06 08:14:14;;;;;;;14.33;10.43;;;;;;;;;;6186467;23;20004;-59
2021/07/06 08:16:41;;;;;;;14.83;9.90;;;;;;;;;;6186653;23;20001;-59
2021/07/06 08:19:08;;;;;;;15.93;11.40;;;;;;;;;;6187161;23;20021;-59
2021/07/06 08:21:35;;;;;;;15.27;11.07;;;;;;;;;;6186592;23;20059;-59
2021/07/06 08:24:03;;;;;;;14.37;9.90;;;;;;;;;;6186446;23;20425;-59
2021/07/06 08:26:31;;;;;;;17.23;10.63;;;;;;;;;;6186410;23;20032;-59
2021/07/06 08:28:58;;;;;;;13.70;10.33;;;;;;;;;;6186674;23;20028;-59
2021/07/06 08:31:25;;;;;;;13.07;10.17;;;;;;;;;;6186348;23;20084;-59
2021/07/06 08:33:52;;;;;;;17.43;10.73;;;;;;;;;;6186445;23;20005;-59
2021/07/06 08:36:18;;;;;;;20.80;10.30;;;;;;;;;;6186512;23;20012;-59
2021/07/06 08:38:45;;;;;;;17.97;10.50;;;;;;;;;;6185935;23;20067;-59
2021/07/06 08:41:12;;;;;;;15.40;11.37;;;;;;;;;;6186198;23;20377;-59
2021/07/06 08:43:39;;;;;;;13.67;9.37;;;;;;;;;;6186093;23;20005;-59
2021/07/06 08:46:06;;;;;;;16.97;10.23;;;;;;;;;;6186338;23;20000;-59
2021/07/06 08:48:34;;;;;;;15.57;10.50;;;;;;;;;;6159968;23;20005;-59
2021/07/06 08:51:02;;;;;;;16.37;11.23;;;;;;;;;;6186389;23;20301;-59
2021/07/06 08:53:29;;;;;;;14.70;11.47;;;;;;;;;;6186389;23;20547;-59
2021/07/06 08:55:58;;;;;;;13.30;10.37;;;;;;;;;;6186496;23;20009;-59
2021/07/06 08:58:25;;;;;;;16.97;12.57;;;;;;;;;;6186020;23;20020;-59
2021/07/06 09:00:52;;;;;;;15.77;11.83;;;;;;;;;;6186165;23;20016;-59
2021/07/06 09:03:19;;;;;;;18.40;9.43;;;;;;;;;;6186018;23;20336;-59
2021/07/06 09:05:46;;;;;;;14.47;10.40;;;;;;;;;;6186427;23;20393;-59
2021/07/06 09:08:17;;;;;;;14.83;11.03;;;;;;;;;;6186146;23;20324;-59
2021/07/06 09:10:43;;;;;;;20.00;10.97;;;;;;;;;;6186122;23;19997;-59
2021/07/06 09:13:25;;;;;;;15.00;9.73;;;;;;;;;;6185990;23;20076;-59
2021/07/06 09:15:53;;;;;;;14.67;10.30;;;;;;;;;;6186148;23;20021;-59
2021/07/06 09:18:21;;;;;;;17.27;10.93;;;;;;;;;;6185937;23;20433;-59
2021/07/06 09:21:17;;;;;;;16.87;12.23;;;;;;;;;;6186624;22;20392;-59
2021/07/06 09:23:43;;;;;;;;;;;;;;;;;;6155741;23;20004;-59
2021/07/06 09:26:18;;;;;;;13.83;9.90;;;;;;;;;;6186205;23;19975;-59
2021/07/06 09:28:48;;;;;;;14.43;10.35;;;;;;;;;;6186011;23;20357;-59
2021/07/06 09:31:24;;;;;;;14.23;10.93;;;;;;;;;;6185701;23;20080;-59
2021/07/06 09:33:57;;;;;;;14.47;10.47;;;;;;;;;;6185885;23;20327;-59
2021/07/06 09:36:34;;;;;;;15.37;10.50;;;;;;;;;;6186046;23;20009;-59
2021/07/06 09:39:03;;;;;;;17.27;11.20;;;;;;;;;;6185964;23;20001;-59
2021/07/06 09:41:30;;;;;;;15.30;10.27;;;;;;;;;;6185757;23;20009;-59
2021/07/06 09:44:14;;;;;;;17.00;11.80;;;;;;;;;;6185606;23;20005;-59
2021/07/06 09:46:48;;;;;;;16.10;11.70;;;;;;;;;;6185751;23;20377;-59
2021/07/06 09:49:16;;;;;;;20.85;12.20;;;;;;;;;;6185560;23;20008;-59
2021/07/06 09:51:43;;;;;;;16.77;12.33;;;;;;;;;;6185652;23;20013;-59
2021/07/06 09:54:10;;;;;;;14.30;11.30;;;;;;;;;;6185691;23;20008;-59
2021/07/06 09:56:45;;;;;;;13.90;10.73;;;;;;;;;;6185611;23;20013;-59
2021/07/06 09:59:15;;;;;;;17.33;11.47;;;;;;;;;;6185672;23;19997;-59
2021/07/06 10:02:04;;;;;;;16.13;11.23;;;;;;;;;;6185373;23;20067;-59
2021/07/06 10:04:31;;;;;;;20.43;11.87;;;;;;;;;;6185723;23;20025;-59
2021/07/06 10:07:00;;;;;;;15.07;11.43;;;;;;;;;;6185457;23;20009;-59
2021/07/06 10:09:26;;;;;;;17.17;11.40;;;;;;;;;;6185587;23;20001;-59
2021/07/06 10:11:55;;;;;;;14.13;10.93;;;;;;;;;;6185538;23;20008;-59
2021/07/06 10:14:22;;;;;;;14.63;11.43;;;;;;;;;;6185267;23;20005;-59
2021/07/06 10:16:49;;;;;;;14.50;10.57;;;;;;;;;;6185340;23;20369;-59
2021/07/06 10:19:23;;;;;;;15.83;11.17;;;;;;;;;;6186197;23;20466;-59
2021/07/06 10:21:56;;;;;;;17.92;10.77;;;;;;;;;;6185266;23;20021;-59
2021/07/06 10:24:23;;;;;;;16.83;10.50;;;;;;;;;;6185768;23;20080;-59
2021/07/06 10:26:57;;;;;;;21.87;11.00;;;;;;;;;;6185497;23;20001;-59
2021/07/06 10:29:34;;;;;;;18.52;11.73;;;;;;;;;;6185511;23;19997;-59
2021/07/06 10:32:01;;;;;;;15.77;10.87;;;;;;;;;;6185159;23;20384;-59
2021/07/06 10:34:29;;;;;;;16.60;12.37;;;;;;;;;;6185231;23;20420;-59
2021/07/06 10:37:02;;;;;;;16.63;11.60;;;;;;;;;;6185148;23;20032;-59
2021/07/06 10:39:48;;;;;;;17.80;11.90;;;;;;;;;;6185188;23;20060;-59
2021/07/06 10:42:15;;;;;;;14.98;11.13;;;;;;;;;;6185131;23;20040;-59
2021/07/06 10:44:42;;;;;;;19.37;11.53;;;;;;;;;;6185235;23;20060;-59
2021/07/06 10:47:27;;;;;;;22.70;11.43;;;;;;;;;;6185152;23;20009;-59
2021/07/06 10:49:54;;;;;;;17.33;13.40;;;;;;;;;;6185216;23;20029;-59
2021/07/06 10:52:35;;;;;;;18.47;12.83;;;;;;;;;;6185139;23;20009;-59
2021/07/06 10:55:21;;;;;;;19.37;13.13;;;;;;;;;;6185511;23;20009;-59
2021/07/06 10:57:49;;;;;;;23.00;12.67;;;;;;;;;;6185277;23;20001;-59
2021/07/06 11:00:16;;;;;;;16.33;12.00;;;;;;;;;;6185446;23;20006;-59
2021/07/06 11:02:42;;;;;;;19.70;11.97;;;;;;;;;;6187300;23;20032;-59
2021/07/06 11:05:09;;;;;;;21.13;14.00;;;;;;;;;;6187390;23;20001;-59
2021/07/06 11:07:49;;;;;;;16.97;13.67;;;;;;;;;;6187263;23;20028;-59
2021/07/06 11:10:16;;;;;;;17.87;12.57;;;;;;;;;;6187398;23;20363;-59
2021/07/06 11:12:44;;;;;;;24.27;15.23;;;;;;;;;;6187043;23;20005;-59
2021/07/06 11:15:16;;;;;;;16.63;12.53;;;;;;;;;;6187119;23;20360;-59
2021/07/06 11:17:44;;;;;;;18.50;12.07;;;;;;;;;;6187078;23;20001;-59
2021/07/06 11:20:11;;;;;;;19.10;13.27;;;;;;;;;;6187685;23;20021;-59
2021/07/06 11:22:45;;;;;;;18.47;14.27;;;;;;;;;;6187138;23;20067;-59
2021/07/06 11:25:21;;;;;;;18.67;12.90;;;;;;;;;;6187132;23;20001;-59
2021/07/06 11:28:07;;;;;;;18.27;13.60;;;;;;;;;;6187113;23;20076;-59
2021/07/06 11:30:41;;;;;;;17.60;13.20;;;;;;;;;;6187003;23;20032;-59
2021/07/06 11:33:08;;;;;;;14.73;12.17;;;;;;;;;;6187023;23;20432;-59
2021/07/06 11:35:36;;;;;;;16.57;11.40;;;;;;;;;;6186981;23;19997;-59
2021/07/06 11:38:13;;;;;;;23.40;12.83;;;;;;;;;;6186953;23;20083;-59
2021/07/06 11:40:41;;;;;;;21.83;12.40;;;;;;;;;;6186959;23;20009;-59
2021/07/06 11:43:09;;;;;;;21.60;12.90;;;;;;;;;;6186752;23;20011;-59
2021/07/06 11:45:36;;;;;;;15.80;11.87;;;;;;;;;;6186952;23;19997;-59
2021/07/06 11:48:04;;;;;;;17.87;13.10;;;;;;;;;;6186733;23;20056;-59
2021/07/06 11:50:31;;;;;;;17.33;11.50;;;;;;;;;;6186892;23;20005;-59
2021/07/06 11:52:58;;;;;;;18.23;13.00;;;;;;;;;;6186642;23;20075;-59
2021/07/06 11:55:26;;;;;;;13.90;11.17;;;;;;;;;;6186803;23;20001;-59
2021/07/06 11:57:55;;;;;;;20.80;11.47;;;;;;;;;;6186790;23;20013;-59
2021/07/06 12:00:23;;;;;;;17.97;12.00;;;;;;;;;;6186546;23;20009;-59
2021/07/06 12:02:51;;;;;;;17.20;12.00;;;;;;;;;;6186516;23;20009;-59
2021/07/06 12:05:18;;;;;;;19.53;12.50;;;;;;;;;;6186683;23;20005;-59
2021/07/06 12:07:45;;;;;;;15.97;12.53;;;;;;;;;;6186776;23;20001;-59
2021/07/06 12:10:12;;;;;;;16.60;12.83;;;;;;;;;;6186710;23;20005;-59
2021/07/06 12:12:39;;;;;;;17.20;12.53;;;;;;;;;;6186643;23;20007;-59
2021/07/06 12:15:07;;;;;;;15.30;11.20;;;;;;;;;;6186333;23;20393;-59
2021/07/06 12:17:34;;;;;;;17.47;11.73;;;;;;;;;;6186508;23;20352;-59
2021/07/06 12:20:02;;;;;;;15.33;11.97;;;;;;;;;;6187137;23;20021;-59
2021/07/06 12:22:29;;;;;;;16.73;11.47;;;;;;;;;;6186496;23;20325;-59
2021/07/06 12:24:57;;;;;;;18.97;13.07;;;;;;;;;;6186592;23;20010;-59
2021/07/06 12:27:24;;;;;;;20.00;13.63;;;;;;;;;;6186474;23;19997;-59
2021/07/06 12:29:56;;;;;;;20.30;14.73;;;;;;;;;;6186631;23;20120;-59
2021/07/06 12:32:22;;;;;;;21.17;14.73;;;;;;;;;;6186498;23;20016;-59
2021/07/06 12:34:59;;;;;;;25.37;14.87;;;;;;;;;;6186569;23;20001;-59
2021/07/06 12:37:29;;;;;;;24.53;14.03;;;;;;;;;;6186325;23;20421;-59
2021/07/06 12:40:08;;;;;;;20.07;12.67;;;;;;;;;;6186386;23;20294;-59
2021/07/06 12:42:38;;;;;;;20.70;14.63;;;;;;;;;;6186276;23;20012;-59
2021/07/06 12:45:07;;;;;;;19.80;12.50;;;;;;;;;;6186469;23;20001;-59
2021/07/06 12:47:41;;;;;;;27.03;14.13;;;;;;;;;;6186191;23;20005;-59
2021/07/06 12:50:15;;;;;;;20.93;13.37;;;;;;;;;;6186395;23;20001;-59
2021/07/06 12:52:44;;;;;;;28.38;14.82;;;;;;;;;;6186169;23;20067;-58
2021/07/06 12:55:22;;;;;;;34.17;15.17;;;;;;;;;;6186361;23;20001;-59
2021/07/06 12:57:50;;;;;;;47.60;16.13;;;;;;;;;;6186105;23;20064;-59
2021/07/06 13:00:21;;;;;;;28.83;15.37;;;;;;;;;;6186120;23;19997;-59
2021/07/06 13:02:52;;;;;;;22.60;13.97;;;;;;;;;;6186157;23;20012;-59
2021/07/06 13:05:31;;;;;;;26.80;14.20;;;;;;;;;;6186156;23;20004;-59
2021/07/06 13:07:58;;;;;;;23.83;14.83;;;;;;;;;;6186138;23;20012;-59
2021/07/06 13:10:45;;;;;;;16.77;13.13;;;;;;;;;;6186079;23;20012;-59
2021/07/06 13:13:13;;;;;;;17.50;13.60;;;;;;;;;;6185989;23;20001;-59
2021/07/06 13:15:41;;;;;;;22.40;15.73;;;;;;;;;;6186159;23;20075;-59
2021/07/06 13:18:09;;;;;;;19.47;14.87;;;;;;;;;;6185968;23;20001;-59
2021/07/06 13:20:39;;;;;;;18.80;14.83;;;;;;;;;;6186628;23;20023;-59
2021/07/06 13:23:05;;;;;;;20.83;15.17;;;;;;;;;;6185764;23;19997;-59
2021/07/06 13:25:33;;;;;;;20.70;13.50;;;;;;;;;;6186101;23;20032;-59
2021/07/06 13:28:00;;;;;;;21.63;12.80;;;;;;;;;;6186047;23;20005;-59
2021/07/06 13:30:29;;;;;;;20.67;13.33;;;;;;;;;;6185948;23;20091;-59
2021/07/06 13:32:56;;;;;;;18.83;12.80;;;;;;;;;;6185951;23;20068;-59
2021/07/06 13:35:23;;;;;;;15.77;12.20;;;;;;;;;;6185734;23;20027;-59
2021/07/06 13:37:50;;;;;;;18.77;13.47;;;;;;;;;;6185891;23;20001;-59
2021/07/06 13:40:18;;;;;;;16.40;11.77;;;;;;;;;;6185482;23;20009;-59
2021/07/06 13:42:45;;;;;;;15.33;12.73;;;;;;;;;;6185299;23;20008;-59
2021/07/06 13:45:13;;;;;;;18.87;13.17;;;;;;;;;;6185393;23;20138;-59
2021/07/06 13:47:41;;;;;;;17.67;13.67;;;;;;;;;;6185292;23;20005;-59
2021/07/06 13:50:09;;;;;;;19.53;13.83;;;;;;;;;;6185672;23;20063;-59
2021/07/06 13:52:36;;;;;;;18.57;14.27;;;;;;;;;;6185387;23;20005;-59
2021/07/06 13:55:03;;;;;;;17.70;13.47;;;;;;;;;;6185296;23;20012;-59
2021/07/06 13:57:30;;;;;;;14.80;12.33;;;;;;;;;;6185496;23;20001;-59
2021/07/06 13:59:57;;;;;;;16.47;12.97;;;;;;;;;;6185272;23;20476;-59
2021/07/06 14:02:24;;;;;;;18.33;14.80;;;;;;;;;;6185448;23;20013;-60
2021/07/06 14:04:51;;;;;;;18.53;14.83;;;;;;;;;;6185224;23;20294;-60
2021/07/06 14:07:18;;;;;;;17.27;14.77;;;;;;;;;;6185115;23;20009;-60
2021/07/06 14:09:44;;;;;;;22.07;14.53;;;;;;;;;;6185249;23;20323;-60
2021/07/06 14:12:15;;;;;;;32.67;15.57;;;;;;;;;;6185265;23;20005;-60
2021/07/06 14:14:42;;;;;;;22.37;14.40;;;;;;;;;;6184991;23;20016;-60
2021/07/06 14:17:08;;;;;;;19.47;14.23;;;;;;;;;;6185260;23;20005;-60
2021/07/06 14:19:35;;;;;;;17.77;13.70;;;;;;;;;;6185844;23;20001;-60
2021/07/06 14:22:02;;;;;;;20.17;17.17;;;;;;;;;;6184942;23;20021;-59
2021/07/06 14:24:29;;;;;;;21.33;15.17;;;;;;;;;;6185256;23;20005;-60
2021/07/06 14:26:56;;;;;;;22.93;16.10;;;;;;;;;;6185205;23;20012;-60
2021/07/06 14:29:23;;;;;;;18.47;14.67;;;;;;;;;;6185216;23;20001;-60
2021/07/06 14:31:49;;;;;;;18.93;14.73;;;;;;;;;;6185255;23;20290;-60